Time;durP1;ratioP1;P1;durP2;ratioP2;P2;SDS_P1;SDS_P2;PMS_P1;PMS_P2;Temp;Humidity;BMP_temperature;BMP_pressure;BME280_temperature;BME280_humidity;BME280_pressure;Samples;Min_cycle;Max_cycle;Signal;HPM_P1;HPM_P2
2022/04/11 00:01:15;;;;;;;6.67;2.20;;;11.10;1.00;;;;;;5071940;28;20210;-82
2022/04/11 00:03:42;;;;;;;5.13;1.73;;;11.00;1.00;;;;;;5072128;28;20256;-78
2022/04/11 00:06:10;;;;;;;4.50;1.57;;;11.00;1.00;;;;;;5071560;28;20259;-76
2022/04/11 00:08:38;;;;;;;5.77;1.90;;;11.10;1.00;;;;;;5071968;28;20256;-76
2022/04/11 00:11:05;;;;;;;4.80;2.63;;;11.20;1.00;;;;;;5071964;28;20205;-77
2022/04/11 00:13:32;;;;;;;5.63;2.03;;;11.40;1.00;;;;;;5072002;28;20644;-76
2022/04/11 00:15:59;;;;;;;6.93;2.43;;;11.50;1.00;;;;;;5071955;28;20293;-82
2022/04/11 00:18:26;;;;;;;7.63;3.13;;;11.50;1.00;;;;;;5071541;28;20202;-79
2022/04/11 00:20:53;;;;;;;8.53;2.97;;;11.60;1.00;;;;;;5071582;28;20206;-78
2022/04/11 00:23:21;;;;;;;8.27;2.67;;;11.60;1.00;;;;;;5071299;28;20238;-76
2022/04/11 00:25:48;;;;;;;2.73;2.37;;;11.70;1.00;;;;;;5071666;28;20673;-77
2022/04/11 00:28:15;;;;;;;9.33;3.43;;;11.70;1.00;;;;;;5071108;28;20669;-78
2022/04/11 00:30:42;;;;;;;9.73;2.63;;;11.80;1.00;;;;;;5071921;28;20210;-82
2022/04/11 00:33:09;;;;;;;10.03;3.20;;;11.80;1.00;;;;;;5071512;28;20206;-84
2022/04/11 00:35:37;;;;;;;5.00;2.60;;;11.80;1.00;;;;;;5071280;28;20735;-79
2022/04/11 00:38:04;;;;;;;6.33;2.40;;;11.90;1.00;;;;;;5071634;28;20688;-80
2022/04/11 00:40:32;;;;;;;5.13;2.63;;;11.90;1.00;;;;;;5069207;28;20206;-76
2022/04/11 00:42:59;;;;;;;7.07;2.87;;;11.90;1.00;;;;;;5051482;28;20285;-76
2022/04/11 00:45:26;;;;;;;9.73;2.93;;;12.00;1.00;;;;;;5051156;28;20236;-78
2022/04/11 00:47:53;;;;;;;5.80;2.60;;;12.00;1.00;;;;;;5050076;28;20679;-78
2022/04/11 00:50:20;;;;;;;4.17;2.33;;;12.00;1.00;;;;;;5050885;28;20628;-87
2022/04/11 00:52:51;;;;;;;9.93;2.47;;;12.00;1.00;;;;;;5051287;28;20256;-82
2022/04/11 00:55:21;;;;;;;5.67;2.13;;;12.00;1.00;;;;;;5051679;28;20199;-80
2022/04/11 00:57:50;;;;;;;5.20;2.73;;;12.00;1.00;;;;;;5051670;28;20214;-80
2022/04/11 01:00:18;;;;;;;4.67;2.60;;;12.00;1.00;;;;;;5050895;28;20203;-80
2022/04/11 01:02:45;;;;;;;3.70;2.27;;;12.10;1.00;;;;;;5051058;28;20226;-76
2022/04/11 01:05:13;;;;;;;5.67;2.37;;;12.10;1.00;;;;;;5050750;28;20666;-77
2022/04/11 01:07:41;;;;;;;8.33;2.37;;;12.10;1.00;;;;;;5051025;28;20658;-80
2022/04/11 01:10:09;;;;;;;6.67;2.87;;;12.10;1.00;;;;;;5050113;28;20298;-77
2022/04/11 01:12:37;;;;;;;6.63;3.67;;;12.20;1.00;;;;;;5051196;28;20203;-77
2022/04/11 01:15:06;;;;;;;5.47;2.33;;;12.20;1.00;;;;;;5051416;28;20261;-77
2022/04/11 01:17:34;;;;;;;6.70;2.27;;;12.20;1.00;;;;;;5050922;28;20203;-79
2022/04/11 01:20:07;;;;;;;5.63;2.30;;;12.20;1.00;;;;;;5051061;28;20203;-78
2022/04/11 01:22:35;;;;;;;8.90;2.53;;;12.10;1.00;;;;;;5051131;28;20270;-77
2022/04/11 01:25:03;;;;;;;4.23;2.37;;;12.20;1.00;;;;;;5051107;28;20264;-78
2022/04/11 01:27:31;;;;;;;10.63;2.60;;;12.20;1.00;;;;;;5050958;28;20245;-80
2022/04/11 01:29:58;;;;;;;7.40;2.67;;;12.20;1.00;;;;;;5050837;28;20242;-75
2022/04/11 01:32:25;;;;;;;6.43;2.33;;;12.20;1.00;;;;;;5050101;28;20612;-75
2022/04/11 01:34:52;;;;;;;6.27;3.73;;;12.20;1.00;;;;;;5050922;28;20274;-78
2022/04/11 01:37:19;;;;;;;5.10;2.17;;;12.20;1.00;;;;;;5050541;28;20256;-76
2022/04/11 01:39:47;;;;;;;6.67;2.40;;;12.20;1.00;;;;;;5050648;28;20241;-79
2022/04/11 01:42:14;;;;;;;5.20;2.37;;;12.20;1.00;;;;;;5050446;28;20280;-78
2022/04/11 01:44:41;;;;;;;7.50;2.33;;;12.20;1.00;;;;;;5050810;28;20253;-78
2022/04/11 01:47:08;;;;;;;5.40;2.60;;;12.20;1.00;;;;;;5049908;28;20202;-75
2022/04/11 01:49:35;;;;;;;12.67;3.67;;;12.20;1.00;;;;;;5050714;28;20256;-80
2022/04/11 01:52:03;;;;;;;6.10;2.83;;;12.20;1.00;;;;;;5050808;28;20214;-77
2022/04/11 01:54:31;;;;;;;10.13;2.63;;;12.20;1.00;;;;;;5050713;28;20253;-79
2022/04/11 01:57:00;;;;;;;8.07;2.77;;;12.20;1.00;;;;;;5050615;28;20206;-78
2022/04/11 01:59:27;;;;;;;7.40;3.40;;;12.20;1.00;;;;;;5050221;28;20272;-78
2022/04/11 02:01:54;;;;;;;4.47;2.80;;;12.20;1.00;;;;;;5050280;28;20462;-78
2022/04/11 02:04:21;;;;;;;7.30;2.43;;;12.20;1.00;;;;;;5050307;28;20199;-79
2022/04/11 02:06:48;;;;;;;10.30;2.10;;;12.20;1.00;;;;;;5050711;28;20249;-78
2022/04/11 02:09:15;;;;;;;8.77;3.50;;;12.10;1.00;;;;;;5049908;28;20256;-76
2022/04/11 02:11:42;;;;;;;6.77;2.63;;;12.10;1.00;;;;;;5050339;28;20211;-77
2022/04/11 02:14:10;;;;;;;3.53;2.90;;;12.00;1.00;;;;;;5049917;28;20670;-78
2022/04/11 02:16:37;;;;;;;5.47;2.33;;;12.10;1.00;;;;;;5050277;28;20284;-75
2022/04/11 02:19:04;;;;;;;13.40;4.93;;;12.00;1.00;;;;;;5050716;28;20210;-75
2022/04/11 02:21:31;;;;;;;6.73;2.30;;;12.00;1.00;;;;;;5051987;28;20211;-79
2022/04/11 02:23:58;;;;;;;6.27;2.67;;;12.00;1.00;;;;;;5054053;28;20288;-79
2022/04/11 02:26:25;;;;;;;11.13;3.70;;;12.10;1.00;;;;;;5053510;28;20207;-75
2022/04/11 02:28:52;;;;;;;7.23;2.20;;;12.00;1.00;;;;;;5053742;28;20601;-76
2022/04/11 02:31:20;;;;;;;10.93;3.70;;;12.10;1.00;;;;;;5053298;28;20207;-74
2022/04/11 02:33:47;;;;;;;4.97;2.47;;;12.10;1.00;;;;;;5054008;28;20199;-74
2022/04/11 02:36:14;;;;;;;11.30;3.03;;;12.00;1.00;;;;;;5053723;28;20203;-77
2022/04/11 02:38:41;;;;;;;2.77;2.13;;;12.00;1.00;;;;;;5053934;28;20232;-77
2022/04/11 02:41:08;;;;;;;8.47;2.53;;;12.00;1.00;;;;;;5053074;28;20273;-75
2022/04/11 02:43:35;;;;;;;6.40;2.93;;;12.00;1.00;;;;;;5053503;28;20226;-76
2022/04/11 02:46:02;;;;;;;7.80;2.40;;;12.00;1.00;;;;;;5053932;28;20209;-78
2022/04/11 02:48:30;;;;;;;9.57;2.77;;;11.90;1.00;;;;;;5053550;28;20298;-77
2022/04/11 02:50:57;;;;;;;3.30;2.43;;;11.90;1.00;;;;;;5053620;28;20207;-77
2022/04/11 02:53:25;;;;;;;8.47;3.87;;;11.90;1.00;;;;;;5052996;28;20256;-77
2022/04/11 02:55:51;;;;;;;4.27;2.37;;;11.90;1.00;;;;;;5053400;28;20260;-76
2022/04/11 02:58:18;;;;;;;6.23;2.20;;;11.90;1.00;;;;;;5052967;28;20215;-73
2022/04/11 03:00:45;;;;;;;5.30;2.47;;;11.90;1.00;;;;;;5053305;28;20206;-75
2022/04/11 03:03:12;;;;;;;5.70;2.23;;;11.90;1.00;;;;;;5052941;28;20234;-74
2022/04/11 03:05:41;;;;;;;8.00;2.90;;;11.90;1.00;;;;;;5053206;28;20632;-75
2022/04/11 03:08:08;;;;;;;7.37;2.97;;;11.90;1.00;;;;;;5052863;28;20257;-75
2022/04/11 03:10:35;;;;;;;6.60;2.97;;;11.90;1.00;;;;;;5053085;28;20203;-73
2022/04/11 03:13:02;;;;;;;6.47;2.70;;;12.00;1.00;;;;;;5053321;28;20257;-73
2022/04/11 03:15:29;;;;;;;6.30;3.27;;;12.00;1.00;;;;;;5052727;28;20578;-74
2022/04/11 03:17:56;;;;;;;8.27;2.50;;;11.80;1.00;;;;;;5053111;28;20280;-74
2022/04/11 03:20:23;;;;;;;8.20;2.87;;;11.80;1.00;;;;;;5052722;28;20632;-79
2022/04/11 03:22:51;;;;;;;3.83;1.90;;;11.80;1.00;;;;;;5052793;28;20652;-75
2022/04/11 03:25:18;;;;;;;9.10;2.83;;;11.80;1.00;;;;;;5052423;28;20199;-75
2022/04/11 03:27:45;;;;;;;4.43;2.37;;;11.80;1.00;;;;;;5052439;28;20204;-75
2022/04/11 03:30:13;;;;;;;12.63;3.13;;;11.80;1.00;;;;;;5052591;28;20211;-73
2022/04/11 03:32:39;;;;;;;6.27;2.43;;;11.80;1.00;;;;;;5051904;28;20675;-74
2022/04/11 03:35:09;;;;;;;8.03;2.37;;;11.90;1.00;;;;;;5052331;28;20658;-74
2022/04/11 03:37:36;;;;;;;7.97;2.40;;;11.90;1.00;;;;;;5052571;28;20261;-74
2022/04/11 03:40:07;;;;;;;10.63;2.53;;;11.90;1.00;;;;;;5052801;28;20203;-71
2022/04/11 03:42:34;;;;;;;8.43;2.43;;;11.90;1.00;;;;;;5052777;28;20238;-72
2022/04/11 03:45:01;;;;;;;5.30;3.00;;;11.90;1.00;;;;;;5052938;28;20202;-72
2022/04/11 03:47:28;;;;;;;12.93;3.20;;;11.90;1.00;;;;;;5052268;28;20233;-72
2022/04/11 03:49:55;;;;;;;5.53;2.20;;;12.00;1.00;;;;;;5052284;28;20203;-73
2022/04/11 03:52:21;;;;;;;5.80;2.50;;;11.90;1.00;;;;;;5051806;28;20740;-72
2022/04/11 03:54:48;;;;;;;10.57;3.23;;;11.80;1.00;;;;;;5052251;28;20729;-72
2022/04/11 03:57:17;;;;;;;3.43;2.03;;;11.80;1.00;;;;;;5051507;28;20218;-75
2022/04/11 03:59:44;;;;;;;7.13;2.47;;;11.90;1.00;;;;;;5052290;28;20203;-74
2022/04/11 04:02:11;;;;;;;6.40;2.93;;;11.90;1.00;;;;;;5051954;28;20202;-74
2022/04/11 04:04:38;;;;;;;8.47;2.17;;;11.90;1.00;;;;;;5051759;28;20675;-76
2022/04/11 04:07:05;;;;;;;7.80;3.40;;;12.00;1.00;;;;;;5063541;28;20622;-73
2022/04/11 04:09:32;;;;;;;4.83;2.07;;;12.00;1.00;;;;;;5079681;28;20259;-77
2022/04/11 04:12:00;;;;;;;8.87;3.10;;;12.00;1.00;;;;;;5071490;28;20259;-73
2022/04/11 04:14:29;;;;;;;5.90;2.53;;;12.00;1.00;;;;;;5071188;28;20297;-74
2022/04/11 04:16:56;;;;;;;3.67;1.90;;;12.00;1.00;;;;;;5071380;28;20700;-74
2022/04/11 04:19:24;;;;;;;7.73;2.93;;;11.90;1.00;;;;;;5071263;28;20256;-74
2022/04/11 04:21:51;;;;;;;5.80;2.53;;;11.90;1.00;;;;;;5071398;28;20198;-74
2022/04/11 04:24:22;;;;;;;8.13;3.07;;;11.90;1.00;;;;;;5071185;28;20283;-73
2022/04/11 04:26:49;;;;;;;6.87;2.17;;;12.00;1.00;;;;;;5071208;28;20242;-74
2022/04/11 04:29:16;;;;;;;9.97;3.73;;;11.90;1.00;;;;;;5070573;28;20202;-74
2022/04/11 04:31:45;;;;;;;8.13;3.67;;;11.90;1.00;;;;;;5065599;28;20206;-74
2022/04/11 04:34:12;;;;;;;9.07;2.47;;;12.00;1.00;;;;;;5070881;28;20205;-75
2022/04/11 04:36:39;;;;;;;8.07;3.10;;;12.00;1.00;;;;;;5071047;28;20256;-76
2022/04/11 04:39:06;;;;;;;10.20;2.40;;;11.90;1.00;;;;;;5071057;28;20210;-76
2022/04/11 04:41:33;;;;;;;5.97;2.20;;;11.90;1.00;;;;;;5071249;28;20232;-76
2022/04/11 04:44:00;;;;;;;5.87;2.87;;;11.90;1.00;;;;;;5071350;28;20646;-74
2022/04/11 04:46:27;;;;;;;7.67;2.43;;;12.00;1.00;;;;;;5070610;28;20213;-72
2022/04/11 04:48:57;;;;;;;4.67;2.03;;;11.90;1.00;;;;;;5070959;28;20702;-73
2022/04/11 04:51:24;;;;;;;8.77;2.27;;;11.90;1.00;;;;;;5070167;28;20206;-75
2022/04/11 04:53:51;;;;;;;6.03;3.10;;;11.90;1.00;;;;;;5070922;28;20259;-73
2022/04/11 04:56:18;;;;;;;5.77;2.70;;;11.90;1.00;;;;;;5070425;28;20256;-72
2022/04/11 04:58:46;;;;;;;10.20;3.83;;;11.90;1.00;;;;;;5070464;28;20263;-74
2022/04/11 05:01:13;;;;;;;8.53;3.30;;;11.90;1.00;;;;;;5070759;28;20562;-74
2022/04/11 05:03:40;;;;;;;6.37;2.60;;;11.90;1.00;;;;;;5070934;28;20291;-76
2022/04/11 05:06:08;;;;;;;15.67;3.07;;;11.90;1.00;;;;;;5070913;28;20267;-74
2022/04/11 05:08:36;;;;;;;5.97;2.30;;;12.00;1.00;;;;;;5071045;28;20202;-75
2022/04/11 05:11:03;;;;;;;14.40;2.77;;;11.90;1.00;;;;;;5071231;28;20202;-75
2022/04/11 05:13:30;;;;;;;7.50;2.80;;;11.90;1.00;;;;;;5070749;28;20210;-74
2022/04/11 05:15:57;;;;;;;8.47;2.67;;;11.90;1.00;;;;;;5070915;28;20611;-73
2022/04/11 05:18:24;;;;;;;3.20;2.00;;;11.90;1.00;;;;;;5070778;28;20259;-77
2022/04/11 05:20:51;;;;;;;3.80;2.53;;;12.00;1.00;;;;;;5070847;28;20206;-75
2022/04/11 05:23:21;;;;;;;8.07;2.13;;;12.00;1.00;;;;;;5070499;28;20239;-77
2022/04/11 05:25:48;;;;;;;10.40;2.37;;;12.00;1.00;;;;;;5070702;28;20248;-75
2022/04/11 05:28:15;;;;;;;8.13;2.77;;;12.00;1.00;;;;;;5070366;28;20666;-76
2022/04/11 05:30:42;;;;;;;10.87;4.13;;;12.00;1.00;;;;;;5071055;28;20271;-78
2022/04/11 05:33:09;;;;;;;3.10;2.00;;;12.00;1.00;;;;;;5070667;28;20202;-80
2022/04/11 05:35:36;;;;;;;4.97;2.43;;;12.00;1.00;;;;;;5070888;28;20277;-77
2022/04/11 05:38:03;;;;;;;11.50;2.73;;;12.10;1.00;;;;;;5070924;28;20622;-74
2022/04/11 05:40:31;;;;;;;6.97;2.20;;;12.10;1.00;;;;;;5070630;28;20614;-79
2022/04/11 05:42:58;;;;;;;7.63;3.03;;;12.10;1.00;;;;;;5070641;28;20252;-76
2022/04/11 05:45:25;;;;;;;6.20;2.20;;;12.10;1.00;;;;;;5070513;28;20362;-75
2022/04/11 05:47:52;;;;;;;12.10;2.90;;;12.20;1.00;;;;;;5070874;28;20256;-84
2022/04/11 05:50:19;;;;;;;7.47;2.63;;;12.20;1.00;;;;;;5070468;28;20206;-78
2022/04/11 05:52:46;;;;;;;9.50;2.30;;;12.20;1.00;;;;;;5070478;28;20244;-77
2022/04/11 05:55:13;;;;;;;10.77;3.10;;;12.30;1.00;;;;;;5070680;28;20198;-82
2022/04/11 05:57:43;;;;;;;16.23;4.07;;;12.30;1.00;;;;;;5074349;28;20259;-82
2022/04/11 06:00:11;;;;;;;10.30;2.07;;;12.30;1.00;;;;;;5074096;28;20205;-79
2022/04/11 06:02:38;;;;;;;11.63;3.97;;;12.40;1.00;;;;;;5075020;28;20332;-79
2022/04/11 06:05:06;;;;;;;8.27;2.43;;;12.40;1.00;;;;;;5074568;28;20234;-74
2022/04/11 06:07:33;;;;;;;7.30;2.13;;;12.50;1.00;;;;;;5074672;28;20206;-80
2022/04/11 06:10:00;;;;;;;7.97;2.03;;;12.60;1.00;;;;;;5074793;28;20210;-77
2022/04/11 06:12:27;;;;;;;10.77;2.53;;;12.60;1.00;;;;;;5074048;28;20214;-73
2022/04/11 06:14:55;;;;;;;7.73;2.30;;;12.60;1.00;;;;;;5074082;28;20721;-73
2022/04/11 06:17:23;;;;;;;15.93;2.40;;;12.70;1.00;;;;;;5073706;28;20693;-74
2022/04/11 06:19:51;;;;;;;7.13;2.43;;;12.70;1.00;;;;;;5074078;28;20206;-74
2022/04/11 06:22:19;;;;;;;5.17;1.93;;;12.70;1.00;;;;;;5070425;28;20206;-75
2022/04/11 06:24:46;;;;;;;7.07;2.63;;;12.70;1.00;;;;;;5073622;28;20241;-74
2022/04/11 06:27:13;;;;;;;7.67;2.50;;;12.80;1.00;;;;;;5073685;28;20198;-78
2022/04/11 06:29:40;;;;;;;9.77;2.70;;;12.90;1.00;;;;;;5073989;28;20202;-72
2022/04/11 06:32:09;;;;;;;6.50;2.53;;;12.90;1.00;;;;;;5073318;28;20272;-73
2022/04/11 06:34:37;;;;;;;6.83;2.67;;;13.00;1.00;;;;;;5068513;28;20260;-73
2022/04/11 06:37:05;;;;;;;10.43;3.40;;;13.00;1.00;;;;;;5061989;28;20203;-71
2022/04/11 06:39:32;;;;;;;5.47;1.83;;;13.10;1.00;;;;;;5061716;28;20735;-70
2022/04/11 06:42:00;;;;;;;7.13;2.63;;;13.10;1.00;;;;;;5072506;28;20734;-69
2022/04/11 06:44:27;;;;;;;4.73;2.40;;;13.20;1.00;;;;;;5072810;28;20324;-70
2022/04/11 06:46:53;;;;;;;8.87;2.87;;;13.20;1.00;;;;;;5072041;28;20203;-72
2022/04/11 06:49:22;;;;;;;5.37;2.57;;;13.20;1.00;;;;;;5072707;28;20214;-72
2022/04/11 06:51:49;;;;;;;10.37;2.50;;;13.30;1.00;;;;;;5072678;28;20604;-74
2022/04/11 06:54:16;;;;;;;8.17;3.27;;;13.40;1.00;;;;;;5066032;28;20209;-74
2022/04/11 06:56:43;;;;;;;4.50;2.27;;;13.30;1.00;;;;;;5067655;28;20306;-72
2022/04/11 06:59:09;;;;;;;6.87;2.17;;;13.30;1.00;;;;;;5076468;28;20218;-73
2022/04/11 07:01:36;;;;;;;7.93;2.50;;;13.40;1.00;;;;;;5072685;28;20210;-72
2022/04/11 07:04:04;;;;;;;8.73;2.83;;;13.40;1.00;;;;;;5064684;28;20230;-73
2022/04/11 07:06:32;;;;;;;5.10;2.13;;;13.50;1.00;;;;;;5066438;28;20268;-72
2022/04/11 07:08:59;;;;;;;4.97;2.78;;;13.50;1.00;;;;;;5057937;28;20225;-74
2022/04/11 07:11:26;;;;;;;7.25;1.50;;;13.50;1.00;;;;;;5072698;28;20824;-73
2022/04/11 07:13:53;;;;;;;11.70;2.35;;;13.60;1.00;;;;;;5071447;28;20291;-74
2022/04/11 07:16:20;;;;;;;8.10;2.65;;;13.70;1.00;;;;;;5072044;28;20209;-76
2022/04/11 07:18:47;;;;;;;5.72;1.95;;;13.80;1.00;;;;;;5073005;28;20208;-73
2022/04/11 07:21:14;;;;;;;4.10;1.77;;;13.90;1.00;;;;;;5072030;28;20260;-78
2022/04/11 07:23:42;;;;;;;11.07;2.00;;;14.00;1.00;;;;;;5072327;28;20247;-77
2022/04/11 07:26:09;;;;;;;4.20;2.13;;;14.20;1.00;;;;;;5071974;28;20210;-73
2022/04/11 07:28:36;;;;;;;8.27;3.20;;;14.20;1.00;;;;;;5071797;28;20210;-74
2022/04/11 07:31:03;;;;;;;8.13;2.50;;;14.30;1.00;;;;;;5071569;28;20689;-76
2022/04/11 07:33:30;;;;;;;6.45;1.50;;;14.30;1.00;;;;;;5069698;28;20210;-72
2022/04/11 07:35:57;;;;;;;6.22;2.30;;;14.30;1.00;;;;;;5071663;28;20209;-72
2022/04/11 07:38:24;;;;;;;6.38;2.05;;;14.30;1.00;;;;;;5071574;28;20206;-71
2022/04/11 07:40:53;;;;;;;12.18;3.03;;;14.20;1.00;;;;;;5072624;28;20252;-70
2022/04/11 07:43:20;;;;;;;5.93;1.88;;;14.20;1.00;;;;;;5070711;28;20247;-73
2022/04/11 07:45:48;;;;;;;6.22;2.00;;;14.20;1.00;;;;;;5072378;28;20241;-77
2022/04/11 07:48:15;;;;;;;5.57;3.53;;;14.30;1.00;;;;;;5070836;28;20209;-77
2022/04/11 07:50:42;;;;;;;7.50;2.38;;;14.40;1.00;;;;;;5068783;28;20198;-75
2022/04/11 07:53:09;;;;;;;9.65;2.28;;;14.50;1.00;;;;;;5067601;28;20749;-80
2022/04/11 07:55:36;;;;;;;4.93;1.60;;;14.60;1.00;;;;;;5068023;28;20210;-75
2022/04/11 07:58:05;;;;;;;6.03;2.70;;;14.60;1.00;;;;;;5067363;28;20218;-76
2022/04/11 08:00:32;;;;;;;5.97;1.80;;;14.90;1.00;;;;;;5066175;28;20203;-76
2022/04/11 08:03:00;;;;;;;5.68;1.65;;;15.00;1.00;;;;;;5063853;28;20210;-74
2022/04/11 08:05:27;;;;;;;6.20;1.77;;;15.00;1.00;;;;;;5069748;28;20257;-75
2022/04/11 08:07:54;;;;;;;5.70;1.77;;;15.30;1.00;;;;;;5068556;28;20375;-74
2022/04/11 08:10:22;;;;;;;6.03;2.22;;;15.50;1.00;;;;;;5069168;28;20210;-73
2022/04/11 08:12:54;;;;;;;8.52;2.03;;;15.60;1.00;;;;;;5069606;28;20208;-77
2022/04/11 08:15:23;;;;;;;8.40;2.95;;;15.60;1.00;;;;;;5071246;28;20210;-79
2022/04/11 08:17:50;;;;;;;8.48;2.00;;;15.70;1.00;;;;;;5071413;28;20209;-77
2022/04/11 08:20:17;;;;;;;4.80;1.55;;;15.50;1.00;;;;;;5069193;28;20682;-75
2022/04/11 08:22:45;;;;;;;6.07;1.88;;;15.80;1.00;;;;;;5070402;28;20214;-80
2022/04/11 08:25:13;;;;;;;4.53;2.05;;;15.80;1.00;;;;;;5057164;28;20222;-76
2022/04/11 08:27:40;;;;;;;14.10;4.07;;;16.00;1.00;;;;;;5071095;28;20680;-73
2022/04/11 08:30:09;;;;;;;11.15;2.42;;;16.10;1.00;;;;;;5070212;28;20210;-74
2022/04/11 08:32:41;;;;;;;12.63;3.92;;;16.10;1.00;;;;;;5071223;28;20213;-74
2022/04/11 08:35:09;;;;;;;6.10;1.98;;;16.10;1.00;;;;;;5068111;28;20267;-75
2022/04/11 08:37:37;;;;;;;4.13;1.48;;;16.20;1.00;;;;;;5070958;28;20206;-73
2022/04/11 08:40:06;;;;;;;4.78;1.88;;;16.10;1.00;;;;;;5070954;28;20584;-75
2022/04/11 08:42:33;;;;;;;6.20;2.03;;;16.30;1.00;;;;;;5071147;28;20256;-80
2022/04/11 08:45:02;;;;;;;4.38;2.10;;;16.30;1.00;;;;;;5071062;28;20704;-74
2022/04/11 08:47:29;;;;;;;3.90;1.65;;;16.80;1.00;;;;;;5070308;28;20255;-75
2022/04/11 08:49:57;;;;;;;11.07;3.05;;;16.50;1.00;;;;;;5070727;28;20267;-74
2022/04/11 08:52:26;;;;;;;8.90;2.05;;;16.40;1.00;;;;;;5070287;28;20213;-75
2022/04/11 08:54:53;;;;;;;3.67;1.48;;;16.80;1.00;;;;;;5070795;28;20243;-71
2022/04/11 08:57:22;;;;;;;5.00;2.45;;;17.00;1.00;;;;;;5070430;28;20218;-78
2022/04/11 08:59:49;;;;;;;6.20;1.98;;;17.00;1.00;;;;;;5070638;28;20202;-73
2022/04/11 09:02:16;;;;;;;10.45;2.63;;;17.10;1.00;;;;;;5056745;28;20222;-77
2022/04/11 09:04:50;;;;;;;4.80;1.58;;;17.00;1.00;;;;;;5070483;28;20778;-75
2022/04/11 09:07:19;;;;;;;2.15;1.20;;;16.70;1.00;;;;;;5070265;28;20298;-74
2022/04/11 09:09:46;;;;;;;6.00;1.73;;;16.80;1.00;;;;;;5070687;28;20206;-78
2022/04/11 09:12:14;;;;;;;7.47;1.88;;;16.70;1.00;;;;;;5056520;28;20736;-73
2022/04/11 09:14:42;;;;;;;4.97;2.00;;;16.90;1.00;;;;;;5070436;28;20212;-73
2022/04/11 09:17:10;;;;;;;6.00;1.80;;;17.30;1.00;;;;;;5069815;28;20215;-74
2022/04/11 09:19:38;;;;;;;8.63;2.10;;;17.40;1.00;;;;;;5070377;28;20661;-75
2022/04/11 09:22:06;;;;;;;3.42;1.60;;;17.90;1.00;;;;;;5070366;28;20212;-72
2022/04/11 09:24:35;;;;;;;3.88;2.35;;;17.90;1.00;;;;;;5056743;28;20234;-77
2022/04/11 09:27:06;;;;;;;4.25;2.15;;;17.80;1.00;;;;;;5070764;28;20327;-73
2022/04/11 09:29:34;;;;;;;9.05;1.70;;;17.50;1.00;;;;;;5070700;28;20221;-78
2022/04/11 09:32:04;;;;;;;4.47;1.50;;;17.40;1.00;;;;;;5069707;28;20688;-76
2022/04/11 09:34:31;;;;;;;6.57;1.63;;;17.70;1.00;;;;;;5068265;28;20255;-77
2022/04/11 09:37:00;;;;;;;8.35;2.20;;;18.30;1.00;;;;;;5059112;28;20240;-75
2022/04/11 09:39:29;;;;;;;4.72;1.45;;;18.80;1.00;;;;;;5070106;28;20218;-78
2022/04/11 09:41:58;;;;;;;6.53;2.08;;;18.70;1.00;;;;;;5070460;28;20287;-76
2022/04/11 09:44:26;;;;;;;14.70;2.70;;;18.50;1.00;;;;;;5069859;28;20267;-74
2022/04/11 09:46:56;;;;;;;3.90;1.85;;;18.50;1.00;;;;;;5070338;28;20206;-75
2022/04/11 09:49:24;;;;;;;4.38;1.63;;;19.30;1.00;;;;;;5069475;28;20206;-72
2022/04/11 09:52:06;;;;;;;7.32;1.88;;;19.10;1.00;;;;;;5070159;28;20198;-74
2022/04/11 09:54:34;;;;;;;6.53;2.58;;;18.80;1.00;;;;;;5070215;28;20681;-72
2022/04/11 09:57:04;;;;;;;4.55;1.48;;;19.30;1.00;;;;;;5070415;28;20252;-73
2022/04/11 09:59:31;;;;;;;7.05;2.20;;;19.20;1.00;;;;;;5067160;28;20289;-75
2022/04/11 10:01:59;;;;;;;10.10;2.60;;;19.80;1.00;;;;;;5069966;28;20746;-74
2022/04/11 10:04:27;;;;;;;8.73;3.00;;;19.80;1.00;;;;;;5069523;28;20685;-72
2022/04/11 10:06:55;;;;;;;5.63;1.50;;;20.60;1.00;;;;;;5069831;28;20659;-75
2022/04/11 10:09:23;;;;;;;5.40;1.60;;;18.90;1.00;;;;;;5067811;28;20202;-81
2022/04/11 10:11:52;;;;;;;13.80;2.72;;;18.20;1.00;;;;;;5070248;28;20256;-78
2022/04/11 10:14:25;;;;;;;7.20;3.75;;;18.30;1.00;;;;;;5069339;28;20228;-78
2022/04/11 10:16:55;;;;;;;3.20;1.27;;;19.00;1.00;;;;;;5049777;28;20215;-87
2022/04/11 10:19:28;;;;;;;7.05;2.08;;;18.50;1.00;;;;;;5061792;28;20673;-84
2022/04/11 10:21:58;;;;;;;8.25;2.78;;;18.30;1.00;;;;;;5070602;28;20256;-85
2022/04/11 10:24:34;;;;;;;4.75;1.50;;;17.90;1.00;;;;;;5070284;28;20232;-78
2022/04/11 10:27:18;;;;;;;6.00;1.77;;;18.10;1.00;;;;;;5070862;28;20229;-82
2022/04/11 10:29:48;;;;;;;3.60;1.98;;;18.20;1.00;;;;;;5070261;28;20585;-77
2022/04/11 10:32:17;;;;;;;6.30;1.63;;;18.30;1.00;;;;;;5067167;28;20211;-77
2022/04/11 10:34:55;;;;;;;6.22;1.67;;;18.30;1.00;;;;;;5070568;28;20643;-85
2022/04/11 10:37:23;;;;;;;4.10;1.30;;;18.10;1.00;;;;;;5070000;28;20206;-77
2022/04/11 10:39:51;;;;;;;8.82;2.58;;;18.10;1.00;;;;;;5070508;28;20601;-76
2022/04/11 10:42:21;;;;;;;6.75;1.30;;;18.10;1.00;;;;;;5071188;28;20275;-76
2022/04/11 10:44:51;;;;;;;4.03;1.92;;;18.00;1.00;;;;;;5073511;28;20210;-74
2022/04/11 10:47:35;;;;;;;5.25;1.48;;;18.10;1.00;;;;;;5072855;28;20285;-76
2022/04/11 10:50:22;;;;;;;9.50;1.65;;;17.70;1.00;;;;;;5073729;28;20218;-76
2022/04/11 10:53:15;;;;;;;8.23;2.20;;;17.80;1.00;;;;;;5073436;28;20206;-74
2022/04/11 10:56:12;;;;;;;5.05;1.30;;;17.80;1.00;;;;;;5073586;28;20202;-73
2022/04/11 10:58:48;;;;;;;3.78;2.22;;;17.80;1.00;;;;;;5011722;28;20689;-86
2022/04/11 11:01:56;;;;;;;12.15;3.40;;;18.20;1.00;;;;;;5062880;28;20198;-78
2022/04/11 11:04:27;;;;;;;5.95;1.60;;;18.00;1.00;;;;;;5073402;28;20255;-80
2022/04/11 11:07:25;;;;;;;6.35;1.98;;;17.70;1.00;;;;;;5073384;28;20681;-78
2022/04/11 11:09:56;;;;;;;9.00;2.85;;;17.50;1.00;;;;;;5067484;28;20585;-80
2022/04/11 11:12:24;;;;;;;10.10;1.90;;;18.00;1.00;;;;;;5072556;28;20578;-77
2022/04/11 11:14:51;;;;;;;4.63;1.35;;;18.00;1.00;;;;;;5073280;28;20681;-79
2022/04/11 11:17:19;;;;;;;2.10;1.20;;;18.30;1.00;;;;;;5073105;28;20260;-77
2022/04/11 11:20:07;;;;;;;3.10;1.55;;;17.80;1.00;;;;;;5072818;28;20256;-77
2022/04/11 11:23:16;;;;;;;5.07;2.13;;;17.90;1.00;;;;;;5058890;28;20207;-71
2022/04/11 11:25:45;;;;;;;7.18;2.80;;;17.90;1.00;;;;;;5070827;28;20319;-75
2022/04/11 11:28:14;;;;;;;5.60;2.88;;;18.00;1.00;;;;;;5069140;28;20241;-74
2022/04/11 11:30:41;;;;;;;2.38;1.05;;;18.20;1.00;;;;;;5065185;28;20237;-73
2022/04/11 11:33:14;;;;;;;9.05;1.77;;;17.90;1.00;;;;;;5070882;28;20213;-72
2022/04/11 11:35:52;;;;;;;2.65;1.48;;;17.70;1.00;;;;;;5060689;28;20214;-74
2022/04/11 11:38:24;;;;;;;7.05;1.73;;;17.60;1.00;;;;;;5071948;28;20666;-77
2022/04/11 11:40:53;;;;;;;8.38;2.65;;;18.00;1.00;;;;;;5071938;28;20202;-72
2022/04/11 11:43:21;;;;;;;10.63;1.95;;;18.20;1.00;;;;;;5071339;28;20749;-78
2022/04/11 11:45:48;;;;;;;6.97;2.63;;;17.80;1.00;;;;;;5064090;28;20227;-73
2022/04/11 11:48:25;;;;;;;7.20;2.22;;;17.70;1.00;;;;;;5054986;28;20194;-76
2022/04/11 11:50:55;;;;;;;6.22;2.30;;;17.70;1.00;;;;;;5071814;28;20198;-72
2022/04/11 11:53:23;;;;;;;7.18;2.13;;;17.80;1.00;;;;;;5060947;28;20610;-72
2022/04/11 11:55:57;;;;;;;5.13;1.83;;;17.70;1.00;;;;;;5071464;28;20240;-69
2022/04/11 11:58:35;;;;;;;11.00;2.35;;;18.00;1.00;;;;;;5071517;28;20217;-72
2022/04/11 12:01:03;;;;;;;7.32;1.90;;;18.30;1.00;;;;;;5071867;28;20277;-70
2022/04/11 12:06:23;;;;;;;9.52;2.65;;;18.20;1.00;;;;;;5068484;28;20221;-71
2022/04/11 12:08:57;;;;;;;4.00;1.65;;;18.30;1.00;;;;;;5060192;28;20256;-68
2022/04/11 12:11:25;;;;;;;5.75;1.65;;;17.60;1.00;;;;;;5070674;28;20210;-73
2022/04/11 12:14:00;;;;;;;5.28;1.67;;;17.60;1.00;;;;;;5070434;28;20626;-68
2022/04/11 12:16:29;;;;;;;6.38;2.00;;;17.50;1.00;;;;;;5071358;28;20213;-69
2022/04/11 12:18:59;;;;;;;4.55;1.52;;;17.80;1.00;;;;;;5067715;28;20297;-68
2022/04/11 12:21:34;;;;;;;7.65;2.25;;;18.00;1.00;;;;;;5071632;28;20210;-70
2022/04/11 12:24:02;;;;;;;3.42;1.48;;;18.40;1.00;;;;;;5060498;28;20574;-69
2022/04/11 12:26:31;;;;;;;9.07;1.90;;;18.30;1.00;;;;;;5050313;28;20234;-74
2022/04/11 12:28:58;;;;;;;4.60;1.83;;;18.20;1.00;;;;;;5050291;28;20886;-76
2022/04/11 12:31:25;;;;;;;6.88;1.67;;;18.10;1.00;;;;;;5050351;28;20206;-75
2022/04/11 12:33:53;;;;;;;6.25;1.98;;;17.80;1.00;;;;;;5051615;28;20628;-72
2022/04/11 12:36:23;;;;;;;7.35;1.52;;;17.70;1.00;;;;;;5051181;28;20199;-70
2022/04/11 12:38:52;;;;;;;11.85;2.70;;;17.70;1.00;;;;;;5051347;28;20207;-74
2022/04/11 12:41:35;;;;;;;9.02;2.22;;;17.70;1.00;;;;;;5051062;28;20207;-77
2022/04/11 12:44:13;;;;;;;7.53;2.88;;;17.40;1.00;;;;;;5050881;28;20575;-76
2022/04/11 12:46:43;;;;;;;9.48;2.40;;;17.70;1.00;;;;;;5051153;28;20241;-77
2022/04/11 12:49:12;;;;;;;4.40;1.85;;;17.70;1.00;;;;;;5050855;28;20607;-79
2022/04/11 12:51:41;;;;;;;4.38;2.10;;;17.50;1.00;;;;;;5051183;28;20662;-72
2022/04/11 12:54:12;;;;;;;8.00;1.38;;;17.40;1.00;;;;;;5050777;28;20257;-73
2022/04/11 12:56:42;;;;;;;9.13;2.80;;;17.60;1.00;;;;;;5050615;28;20555;-77
2022/04/11 12:59:10;;;;;;;4.57;1.95;;;17.70;1.00;;;;;;5068590;28;20222;-73
2022/04/11 13:01:51;;;;;;;7.30;2.95;;;17.40;1.00;;;;;;5071079;28;20206;-75
2022/04/11 13:04:19;;;;;;;4.85;1.55;;;16.90;1.00;;;;;;5070737;28;20202;-73
2022/04/11 13:06:49;;;;;;;4.57;1.95;;;17.10;1.00;;;;;;5070098;28;20234;-72